Time;durP1;ratioP1;P1;durP2;ratioP2;P2;SDS_P1;SDS_P2;PMS_P1;PMS_P2;Temp;Humidity;BMP_temperature;BMP_pressure;BME280_temperature;BME280_humidity;BME280_pressure;Samples;Min_cycle;Max_cycle;Signal;HPM_P1;HPM_P2
2023/06/19 00:02:03;;;;;;;9.52;8.63;;;21.50;99.90;;;;;;5012559;28;20484;-75
2023/06/19 00:04:29;;;;;;;10.60;8.85;;;21.60;99.90;;;;;;4995809;28;20412;-74
2023/06/19 00:06:55;;;;;;;8.02;7.32;;;21.60;99.90;;;;;;5012867;28;20045;-73
2023/06/19 00:09:20;;;;;;;9.35;8.43;;;21.50;99.90;;;;;;5012567;28;20457;-73
2023/06/19 00:11:46;;;;;;;9.05;8.25;;;21.50;99.90;;;;;;4995426;28;20053;-73
2023/06/19 00:14:12;;;;;;;8.48;7.75;;;21.50;99.90;;;;;;5012676;28;20045;-72
2023/06/19 00:16:38;;;;;;;9.57;8.65;;;21.50;99.90;;;;;;5012512;28;20048;-72
2023/06/19 00:19:03;;;;;;;9.48;7.55;;;21.50;99.90;;;;;;4995228;28;20125;-73
2023/06/19 00:21:29;;;;;;;9.02;8.07;;;21.50;99.90;;;;;;5012757;28;20532;-73
2023/06/19 00:23:55;;;;;;;9.30;8.40;;;21.50;99.90;;;;;;5012519;28;20042;-73
2023/06/19 00:26:25;;;;;;;8.10;7.40;;;21.50;99.90;;;;;;5012439;28;20045;-73
2023/06/19 00:28:51;;;;;;;9.95;7.70;;;21.50;99.90;;;;;;5012462;28;20132;-73
2023/06/19 00:31:18;;;;;;;8.23;7.47;;;21.50;99.90;;;;;;5012152;28;20512;-73
2023/06/19 00:33:45;;;;;;;9.93;7.95;;;21.50;99.90;;;;;;5014207;28;20060;-73
2023/06/19 00:36:12;;;;;;;7.63;6.93;;;21.40;99.90;;;;;;5016267;28;20050;-73
2023/06/19 00:38:39;;;;;;;7.80;7.20;;;21.50;99.90;;;;;;5016411;28;20058;-73
2023/06/19 00:41:05;;;;;;;8.63;7.82;;;21.40;99.90;;;;;;5016558;28;20081;-75
2023/06/19 00:43:31;;;;;;;9.73;8.40;;;21.50;99.90;;;;;;5016262;28;20050;-72
2023/06/19 00:46:02;;;;;;;12.82;8.65;;;21.50;99.90;;;;;;5016236;28;20057;-73
2023/06/19 00:48:29;;;;;;;9.98;7.45;;;21.40;99.90;;;;;;5016472;28;20050;-73
2023/06/19 00:50:56;;;;;;;8.90;7.50;;;21.50;99.90;;;;;;5016638;28;20046;-73
2023/06/19 00:53:22;;;;;;;7.63;6.90;;;21.50;99.90;;;;;;5016527;28;20090;-73
2023/06/19 00:55:48;;;;;;;8.02;7.15;;;21.50;99.90;;;;;;4998734;28;20053;-74
2023/06/19 00:58:15;;;;;;;9.48;8.52;;;21.50;99.90;;;;;;5016102;28;20112;-75
2023/06/19 01:00:41;;;;;;;8.57;7.78;;;21.50;99.90;;;;;;5016477;28;20108;-72
2023/06/19 01:03:06;;;;;;;7.85;6.88;;;21.50;99.90;;;;;;5016025;28;20045;-73
2023/06/19 01:05:33;;;;;;;7.65;6.97;;;21.50;99.90;;;;;;4998716;28;20048;-72
2023/06/19 01:08:13;;;;;;;8.18;7.38;;;21.50;99.90;;;;;;5015919;28;20038;-73
2023/06/19 01:10:46;;;;;;;8.07;7.28;;;21.50;99.90;;;;;;5016432;28;20052;-75
2023/06/19 01:13:36;;;;;;;8.60;7.72;;;21.50;99.90;;;;;;5016023;28;20061;-73
2023/06/19 01:16:04;;;;;;;7.68;6.93;;;21.40;99.90;;;;;;5015754;28;20046;-73
2023/06/19 01:18:31;;;;;;;7.60;6.90;;;21.40;99.90;;;;;;5016175;28;20115;-74
2023/06/19 01:21:08;;;;;;;8.45;7.65;;;21.40;99.90;;;;;;5016349;28;20057;-74
2023/06/19 01:23:34;;;;;;;7.68;6.97;;;21.40;99.90;;;;;;4998160;28;20130;-74
2023/06/19 01:25:59;;;;;;;8.70;7.82;;;21.40;99.90;;;;;;5015577;28;20058;-74
2023/06/19 01:28:26;;;;;;;8.48;7.68;;;21.40;99.90;;;;;;5015328;28;20129;-73
2023/06/19 01:30:54;;;;;;;8.05;7.25;;;21.40;99.90;;;;;;5015515;28;20049;-73
2023/06/19 01:33:27;;;;;;;10.10;8.13;;;21.40;99.90;;;;;;5015718;28;20050;-74
2023/06/19 01:35:55;;;;;;;8.43;7.72;;;21.40;99.20;;;;;;5015366;28;20477;-74
2023/06/19 01:38:25;;;;;;;10.82;7.93;;;21.40;99.00;;;;;;5015086;28;20085;-73
2023/06/19 01:40:55;;;;;;;7.82;7.03;;;21.40;98.70;;;;;;5015281;28;20089;-73
2023/06/19 01:43:22;;;;;;;9.43;8.15;;;21.40;98.80;;;;;;5015626;28;20061;-73
2023/06/19 01:45:48;;;;;;;9.65;7.68;;;21.40;98.60;;;;;;5014510;28;20056;-73
2023/06/19 01:48:14;;;;;;;8.98;8.07;;;21.40;98.60;;;;;;5015008;28;20046;-73
2023/06/19 01:50:45;;;;;;;8.95;7.90;;;21.40;98.50;;;;;;5014946;28;20054;-74
2023/06/19 01:53:11;;;;;;;8.63;7.72;;;21.40;98.50;;;;;;5015025;28;20484;-73
2023/06/19 01:55:37;;;;;;;11.73;7.85;;;21.30;98.50;;;;;;5014870;28;20129;-73
2023/06/19 01:58:03;;;;;;;9.85;7.78;;;21.30;98.80;;;;;;5015239;28;20057;-73
2023/06/19 02:00:30;;;;;;;8.75;7.85;;;21.30;98.90;;;;;;5015943;28;20046;-75
2023/06/19 02:02:56;;;;;;;9.80;8.27;;;21.30;98.90;;;;;;5015393;28;20046;-73
2023/06/19 02:05:21;;;;;;;8.70;7.90;;;21.30;98.50;;;;;;5014823;28;20100;-74
2023/06/19 02:07:47;;;;;;;9.57;7.25;;;21.30;98.50;;;;;;5014823;28;20081;-75
2023/06/19 02:10:13;;;;;;;7.95;7.20;;;21.30;98.40;;;;;;4981294;28;20046;-76
2023/06/19 02:12:39;;;;;;;11.02;7.97;;;21.30;98.20;;;;;;5014721;28;20173;-73
2023/06/19 02:15:05;;;;;;;8.35;7.43;;;21.30;98.10;;;;;;4964859;28;20482;-75
2023/06/19 02:17:31;;;;;;;8.25;7.45;;;21.30;98.10;;;;;;5014570;28;20048;-73
2023/06/19 02:19:56;;;;;;;8.02;7.22;;;21.30;98.20;;;;;;5014781;28;20042;-73
2023/06/19 02:22:22;;;;;;;8.30;7.50;;;21.30;98.00;;;;;;4997158;28;20077;-72
2023/06/19 02:24:47;;;;;;;7.90;7.10;;;21.30;98.20;;;;;;5014606;28;20050;-73
2023/06/19 02:27:13;;;;;;;8.75;7.85;;;21.30;98.00;;;;;;5014689;28;20096;-75
2023/06/19 02:29:39;;;;;;;8.40;7.60;;;21.30;97.90;;;;;;5014394;28;20104;-73
2023/06/19 02:32:05;;;;;;;8.98;7.18;;;21.30;97.70;;;;;;5014338;28;20049;-73
2023/06/19 02:34:31;;;;;;;7.97;7.18;;;21.30;97.80;;;;;;5014152;28;20081;-73
2023/06/19 02:36:56;;;;;;;7.10;6.47;;;21.30;97.90;;;;;;5013979;28;20038;-73
2023/06/19 02:39:23;;;;;;;8.25;7.43;;;21.30;98.00;;;;;;5014232;28;20057;-73
2023/06/19 02:41:49;;;;;;;9.85;8.07;;;21.30;97.70;;;;;;4997009;28;20067;-73
2023/06/19 02:44:15;;;;;;;8.70;7.80;;;21.30;97.50;;;;;;5014581;28;20450;-74
2023/06/19 02:46:41;;;;;;;9.02;8.15;;;21.30;97.20;;;;;;4981077;28;20119;-73
2023/06/19 02:49:06;;;;;;;9.70;7.07;;;21.30;96.90;;;;;;4996650;28;20042;-73
2023/06/19 02:51:32;;;;;;;9.82;8.25;;;21.30;96.90;;;;;;5013956;28;20050;-73
2023/06/19 02:53:57;;;;;;;8.32;6.85;;;21.30;96.60;;;;;;5014153;28;20085;-74
2023/06/19 02:56:24;;;;;;;8.48;6.82;;;21.30;96.70;;;;;;5013237;28;20045;-75
2023/06/19 02:58:50;;;;;;;9.02;7.43;;;21.30;96.60;;;;;;4996514;28;20127;-74
2023/06/19 03:01:16;;;;;;;10.02;7.28;;;21.30;96.30;;;;;;5013896;28;20480;-74
2023/06/19 03:03:41;;;;;;;8.32;7.53;;;21.30;96.40;;;;;;5013851;28;20492;-73
2023/06/19 03:06:08;;;;;;;7.93;7.13;;;21.30;96.20;;;;;;5013451;28;20046;-72
2023/06/19 03:08:35;;;;;;;7.97;7.22;;;21.30;96.00;;;;;;5013694;28;20038;-73
2023/06/19 03:11:00;;;;;;;8.02;7.22;;;21.30;96.00;;;;;;5014141;28;20045;-74
2023/06/19 03:13:26;;;;;;;8.35;7.43;;;21.40;96.10;;;;;;5013594;28;20475;-75
2023/06/19 03:15:52;;;;;;;8.35;7.05;;;21.40;95.80;;;;;;5013598;28;20049;-73
2023/06/19 03:18:17;;;;;;;9.75;6.47;;;21.40;95.60;;;;;;5013881;28;20486;-74
2023/06/19 03:20:43;;;;;;;7.00;6.30;;;21.50;95.70;;;;;;4995465;28;20044;-75
2023/06/19 03:23:09;;;;;;;8.00;7.20;;;21.50;95.70;;;;;;5013412;28;20057;-73
2023/06/19 03:25:34;;;;;;;8.15;6.85;;;21.30;95.40;;;;;;4996503;28;20121;-74
2023/06/19 03:28:04;;;;;;;9.85;7.70;;;21.60;95.80;;;;;;5012996;28;20041;-75
2023/06/19 03:30:30;;;;;;;9.00;8.10;;;21.70;95.70;;;;;;5013367;28;20057;-74
2023/06/19 03:32:56;;;;;;;7.78;6.85;;;21.70;95.70;;;;;;5013161;28;20049;-75
2023/06/19 03:35:22;;;;;;;9.30;8.40;;;21.70;95.80;;;;;;5012853;28;20041;-73
2023/06/19 03:37:47;;;;;;;7.65;6.93;;;21.70;95.80;;;;;;5013284;28;20141;-74
2023/06/19 03:40:13;;;;;;;10.77;7.70;;;21.80;95.90;;;;;;5013560;28;20479;-74
2023/06/19 03:42:40;;;;;;;6.65;6.00;;;21.80;96.00;;;;;;4996445;28;20054;-74
2023/06/19 03:45:06;;;;;;;8.27;7.47;;;21.70;96.00;;;;;;4996364;28;20532;-74
2023/06/19 03:47:32;;;;;;;10.85;7.18;;;21.70;96.10;;;;;;5013356;28;20073;-72
2023/06/19 03:49:57;;;;;;;8.13;7.13;;;21.70;96.00;;;;;;4995782;28;20050;-73
2023/06/19 03:52:23;;;;;;;7.25;6.47;;;21.70;96.10;;;;;;5012923;28;20081;-75
2023/06/19 03:54:49;;;;;;;7.03;6.32;;;21.70;96.30;;;;;;5013445;28;20548;-74
2023/06/19 03:57:15;;;;;;;7.32;6.68;;;21.70;96.60;;;;;;4995985;28;20065;-74
2023/06/19 03:59:41;;;;;;;8.10;6.78;;;21.70;96.30;;;;;;4995797;28;20067;-73
2023/06/19 04:02:06;;;;;;;7.43;6.22;;;21.80;96.50;;;;;;5013495;28;20081;-76
2023/06/19 04:04:34;;;;;;;7.65;6.57;;;21.70;96.60;;;;;;4995986;28;20432;-73
2023/06/19 04:07:02;;;;;;;7.97;6.35;;;21.70;97.20;;;;;;5012378;28;20443;-73
2023/06/19 04:09:30;;;;;;;6.78;6.18;;;21.70;97.30;;;;;;4995466;28;20569;-73
2023/06/19 04:11:56;;;;;;;6.93;5.68;;;22.80;97.50;;;;;;4979226;28;20081;-73
2023/06/19 04:14:23;;;;;;;10.02;7.45;;;21.60;97.10;;;;;;5012640;28;20093;-73
2023/06/19 04:16:49;;;;;;;6.22;5.63;;;21.60;97.30;;;;;;4995983;28;20057;-75
2023/06/19 04:19:14;;;;;;;5.63;4.97;;;21.50;97.60;;;;;;5012894;28;20064;-73
2023/06/19 04:21:40;;;;;;;6.38;4.85;;;21.50;97.90;;;;;;5012448;28;20053;-72
2023/06/19 04:24:08;;;;;;;5.68;5.13;;;21.50;98.10;;;;;;5012634;28;20081;-73
2023/06/19 04:26:35;;;;;;;4.97;4.57;;;21.50;98.30;;;;;;4994969;28;20046;-73
2023/06/19 04:29:01;;;;;;;7.30;4.55;;;21.50;98.50;;;;;;5012307;28;20104;-73
2023/06/19 04:31:28;;;;;;;5.03;4.53;;;21.40;98.70;;;;;;4995052;28;20464;-75
2023/06/19 04:33:56;;;;;;;4.20;3.80;;;21.40;98.80;;;;;;5012076;28;20518;-76
2023/06/19 04:36:22;;;;;;;6.00;4.65;;;21.50;99.20;;;;;;4979014;28;20058;-75
2023/06/19 04:38:52;;;;;;;5.10;4.60;;;21.40;99.20;;;;;;5012721;28;20119;-75
2023/06/19 04:41:17;;;;;;;4.93;4.18;;;21.50;99.40;;;;;;4994792;28;20160;-75
2023/06/19 04:43:43;;;;;;;4.32;3.72;;;21.50;99.60;;;;;;4994868;28;20526;-76
2023/06/19 04:46:09;;;;;;;4.70;3.65;;;21.40;99.70;;;;;;5012063;28;20076;-74
2023/06/19 04:48:40;;;;;;;4.93;4.43;;;21.50;99.70;;;;;;4979135;28;20049;-76
2023/06/19 04:51:05;;;;;;;4.70;4.20;;;21.50;99.90;;;;;;5012436;28;20060;-74
2023/06/19 04:53:31;;;;;;;7.78;4.00;;;21.50;99.90;;;;;;4994859;28;20446;-73
2023/06/19 04:55:57;;;;;;;5.75;3.95;;;21.50;99.90;;;;;;4995225;28;20125;-73
2023/06/19 04:58:22;;;;;;;5.75;5.25;;;21.50;99.90;;;;;;4994951;28;20127;-75
2023/06/19 05:00:50;;;;;;;4.47;4.05;;;21.60;99.90;;;;;;4994587;28;20054;-75
2023/06/19 05:03:18;;;;;;;5.53;4.13;;;21.60;99.90;;;;;;4994885;28;20107;-73
2023/06/19 05:05:44;;;;;;;4.40;3.90;;;21.60;99.90;;;;;;5012458;28;20053;-76
2023/06/19 05:08:10;;;;;;;4.45;3.40;;;21.60;99.90;;;;;;5011776;28;20103;-74
2023/06/19 05:10:36;;;;;;;6.00;4.50;;;21.70;99.90;;;;;;5012165;28;20050;-74
2023/06/19 05:13:01;;;;;;;4.22;3.70;;;21.70;99.90;;;;;;5012033;28;20046;-73
2023/06/19 05:15:27;;;;;;;4.40;4.00;;;21.70;99.90;;;;;;4994133;28;20053;-73
2023/06/19 05:17:54;;;;;;;4.72;4.05;;;21.70;99.90;;;;;;5012031;28;20042;-74
2023/06/19 05:20:20;;;;;;;5.75;4.20;;;21.70;99.90;;;;;;5013921;28;20137;-73
2023/06/19 05:22:45;;;;;;;5.68;4.40;;;21.70;99.90;;;;;;4981520;28;20046;-74
2023/06/19 05:25:11;;;;;;;4.28;3.83;;;21.70;99.90;;;;;;4998172;28;20133;-74
2023/06/19 05:27:37;;;;;;;5.35;3.95;;;21.70;99.90;;;;;;5015779;28;20038;-74
2023/06/19 05:30:04;;;;;;;5.32;4.00;;;21.70;99.90;;;;;;4997825;28;20077;-73
2023/06/19 05:32:30;;;;;;;5.10;4.05;;;21.80;99.90;;;;;;5015169;28;20125;-75
2023/06/19 05:34:56;;;;;;;4.68;4.28;;;21.80;99.90;;;;;;5015621;28;20067;-73
2023/06/19 05:37:22;;;;;;;6.32;4.38;;;21.80;99.90;;;;;;4981960;28;20057;-74
2023/06/19 05:39:48;;;;;;;4.93;3.53;;;21.90;99.90;;;;;;4981581;28;20050;-74
2023/06/19 05:42:14;;;;;;;6.55;4.45;;;21.90;99.90;;;;;;5015430;28;20046;-74
2023/06/19 05:44:40;;;;;;;5.25;3.95;;;22.00;99.90;;;;;;5015108;28;20499;-75
2023/06/19 05:47:09;;;;;;;4.60;4.03;;;22.20;99.90;;;;;;5015206;28;20124;-74
2023/06/19 05:49:34;;;;;;;5.10;4.20;;;22.30;99.90;;;;;;5015041;28;20100;-72
2023/06/19 05:52:00;;;;;;;4.68;4.22;;;22.30;99.90;;;;;;5015311;28;20050;-74
2023/06/19 05:54:26;;;;;;;5.18;4.50;;;22.30;99.90;;;;;;5015103;28;20518;-74
2023/06/19 05:56:53;;;;;;;4.40;4.00;;;22.20;99.90;;;;;;5015288;28;20046;-73
2023/06/19 05:59:18;;;;;;;4.22;3.83;;;22.20;99.90;;;;;;5015370;28;20125;-75
2023/06/19 06:01:44;;;;;;;5.93;4.40;;;22.20;99.90;;;;;;5015602;28;20080;-73
2023/06/19 06:04:10;;;;;;;6.10;4.82;;;22.30;99.90;;;;;;5015748;28;20042;-73
2023/06/19 06:06:35;;;;;;;6.70;4.60;;;22.20;99.90;;;;;;5015284;28;20522;-74
2023/06/19 06:09:01;;;;;;;6.10;5.35;;;22.20;99.90;;;;;;4982185;28;20073;-75
2023/06/19 06:11:27;;;;;;;6.35;4.68;;;22.20;99.90;;;;;;5015462;28;20044;-75
2023/06/19 06:13:52;;;;;;;6.95;5.43;;;22.20;99.90;;;;;;5015291;28;20046;-73
2023/06/19 06:16:18;;;;;;;7.15;5.95;;;22.20;99.90;;;;;;4997972;28;20487;-73
2023/06/19 06:18:45;;;;;;;9.02;6.05;;;22.20;99.90;;;;;;4997314;28;20471;-75
2023/06/19 06:21:12;;;;;;;5.97;5.38;;;22.40;99.90;;;;;;5014962;28;20137;-75
2023/06/19 06:23:40;;;;;;;8.50;6.35;;;22.40;99.90;;;;;;5015098;28;20068;-73
2023/06/19 06:26:06;;;;;;;5.65;5.03;;;22.40;99.90;;;;;;4997176;28;20397;-75
2023/06/19 06:28:31;;;;;;;7.38;5.63;;;22.50;99.90;;;;;;4981585;28;20121;-74
2023/06/19 06:30:57;;;;;;;6.72;5.28;;;22.50;99.90;;;;;;4981519;28;20046;-74
2023/06/19 06:33:23;;;;;;;7.55;4.90;;;22.70;99.90;;;;;;4997108;28;20137;-75
2023/06/19 06:35:51;;;;;;;5.03;4.45;;;23.00;99.90;;;;;;5014684;28;20121;-76
2023/06/19 06:38:17;;;;;;;5.40;4.22;;;23.20;99.90;;;;;;5014267;28;20144;-75
2023/06/19 06:40:43;;;;;;;4.82;4.43;;;23.60;99.90;;;;;;4996590;28;20139;-74
2023/06/19 06:43:08;;;;;;;10.57;4.28;;;23.80;99.90;;;;;;5014615;28;20072;-75
2023/06/19 06:45:36;;;;;;;7.18;4.60;;;23.50;99.90;;;;;;5014134;28;20489;-78
2023/06/19 06:48:04;;;;;;;4.95;3.85;;;23.20;99.90;;;;;;4997030;28;20038;-76
2023/06/19 06:50:32;;;;;;;5.07;3.72;;;23.10;99.90;;;;;;4997400;28;20046;-75
2023/06/19 06:52:57;;;;;;;4.47;4.07;;;22.80;99.90;;;;;;5014275;28;20093;-77
2023/06/19 06:55:23;;;;;;;4.00;3.65;;;22.70;99.90;;;;;;4996488;28;20049;-76
2023/06/19 06:57:49;;;;;;;5.25;4.75;;;22.50;99.90;;;;;;5013973;28;20046;-75
2023/06/19 07:00:15;;;;;;;3.90;3.60;;;22.30;99.90;;;;;;5013896;28;20053;-74
2023/06/19 07:02:41;;;;;;;4.55;4.15;;;22.20;99.90;;;;;;4996656;28;20089;-73
2023/06/19 07:05:08;;;;;;;5.43;4.93;;;22.10;99.90;;;;;;5013813;28;20129;-80
2023/06/19 07:07:34;;;;;;;5.57;4.97;;;21.90;99.90;;;;;;5013885;28;20061;-79
2023/06/19 07:10:00;;;;;;;6.50;5.80;;;21.80;99.90;;;;;;5014013;28;20446;-73
2023/06/19 07:12:26;;;;;;;7.45;6.47;;;21.70;99.90;;;;;;5013543;28;20081;-75
2023/06/19 07:14:55;;;;;;;6.68;5.97;;;21.60;99.90;;;;;;5014001;28;20057;-72
2023/06/19 07:17:20;;;;;;;8.18;6.47;;;21.60;99.90;;;;;;4980031;28;20540;-74
2023/06/19 07:19:46;;;;;;;7.50;6.78;;;21.60;99.90;;;;;;4996325;28;20120;-72
2023/06/19 07:22:13;;;;;;;11.40;8.38;;;21.70;99.90;;;;;;4996476;28;20467;-72
2023/06/19 07:24:40;;;;;;;9.57;8.52;;;21.60;99.90;;;;;;5013791;28;20057;-74
2023/06/19 07:27:08;;;;;;;10.50;8.98;;;21.60;99.90;;;;;;4995894;28;20504;-73
2023/06/19 07:29:35;;;;;;;12.48;10.68;;;21.50;99.90;;;;;;5013426;28;20046;-74
2023/06/19 07:32:02;;;;;;;13.25;11.43;;;21.50;99.90;;;;;;5013932;28;20367;-72
2023/06/19 07:34:28;;;;;;;12.77;11.32;;;21.40;99.90;;;;;;4995800;28;20088;-75
2023/06/19 07:36:54;;;;;;;13.90;10.93;;;21.40;99.90;;;;;;5011711;28;20037;-75
2023/06/19 07:39:19;;;;;;;14.35;12.13;;;21.40;99.90;;;;;;4991967;28;20062;-73
2023/06/19 07:41:45;;;;;;;13.70;10.32;;;21.30;99.90;;;;;;4992017;28;20054;-73
2023/06/19 07:44:11;;;;;;;12.32;10.90;;;21.40;99.90;;;;;;4993328;28;20475;-73
2023/06/19 07:46:37;;;;;;;11.82;9.73;;;21.50;99.90;;;;;;4993774;28;20056;-73
2023/06/19 07:49:03;;;;;;;14.02;9.80;;;21.50;99.90;;;;;;4993014;28;20475;-73
2023/06/19 07:51:28;;;;;;;10.63;8.10;;;21.60;99.90;;;;;;4993245;28;20135;-73
2023/06/19 07:53:54;;;;;;;10.50;8.45;;;21.70;99.90;;;;;;4993226;28;20057;-73
2023/06/19 07:56:20;;;;;;;12.68;9.40;;;21.90;99.90;;;;;;4993506;28;20038;-77
2023/06/19 07:58:47;;;;;;;9.68;8.30;;;22.00;99.90;;;;;;4993259;28;20479;-77
2023/06/19 08:01:12;;;;;;;9.45;8.05;;;22.10;99.90;;;;;;4993038;28;20054;-73
2023/06/19 08:03:38;;;;;;;8.68;7.35;;;22.10;99.90;;;;;;4976088;28;20097;-72
2023/06/19 08:06:04;;;;;;;10.40;9.30;;;22.00;99.90;;;;;;4991660;28;20146;-73
2023/06/19 08:08:29;;;;;;;10.23;7.22;;;21.90;99.90;;;;;;4993099;28;20050;-74
2023/06/19 08:10:55;;;;;;;9.55;7.80;;;21.90;99.90;;;;;;4992939;28;20078;-74
2023/06/19 08:13:21;;;;;;;10.90;6.75;;;21.70;99.90;;;;;;4993465;28;20046;-74
2023/06/19 08:15:47;;;;;;;8.15;6.20;;;21.70;99.90;;;;;;4993451;28;20385;-73
2023/06/19 08:18:12;;;;;;;6.97;6.18;;;21.60;99.90;;;;;;4993195;28;20069;-73
2023/06/19 08:20:38;;;;;;;6.72;5.55;;;21.60;99.90;;;;;;4992096;28;20061;-73
2023/06/19 08:23:03;;;;;;;6.70;5.47;;;21.50;99.90;;;;;;4993205;28;20161;-75
2023/06/19 08:25:29;;;;;;;7.97;5.93;;;21.50;99.90;;;;;;4993019;28;20042;-72
2023/06/19 08:27:55;;;;;;;7.47;4.93;;;21.60;99.90;;;;;;4993418;28;20046;-73
2023/06/19 08:30:20;;;;;;;5.97;4.70;;;21.60;99.90;;;;;;4993298;28;20082;-73
2023/06/19 08:32:46;;;;;;;7.55;5.00;;;21.60;99.90;;;;;;4992696;28;20068;-73
2023/06/19 08:35:12;;;;;;;5.38;4.55;;;21.70;99.90;;;;;;4993033;28;20066;-74
2023/06/19 08:37:38;;;;;;;5.50;4.45;;;21.70;99.90;;;;;;4993822;28;20052;-72
2023/06/19 08:40:08;;;;;;;5.45;4.28;;;21.70;99.90;;;;;;4995541;28;20054;-73
2023/06/19 08:42:34;;;;;;;5.32;3.92;;;21.80;99.90;;;;;;5012674;28;20046;-74
2023/06/19 08:45:00;;;;;;;11.85;4.95;;;21.80;99.90;;;;;;5012564;28;20053;-73
2023/06/19 08:47:31;;;;;;;7.78;4.70;;;21.90;99.90;;;;;;5012623;28;20046;-73
2023/06/19 08:49:58;;;;;;;5.75;4.40;;;21.90;99.90;;;;;;5013041;28;20054;-73
2023/06/19 08:52:24;;;;;;;5.53;4.43;;;22.00;99.90;;;;;;5013114;28;20073;-74
2023/06/19 08:54:49;;;;;;;7.47;4.63;;;22.00;99.90;;;;;;5014280;28;20052;-73
2023/06/19 08:57:15;;;;;;;5.93;4.82;;;21.90;99.90;;;;;;4998888;28;20527;-73
2023/06/19 08:59:49;;;;;;;4.97;4.45;;;21.90;99.90;;;;;;4999118;28;20042;-74
2023/06/19 09:02:15;;;;;;;8.00;4.63;;;22.00;99.90;;;;;;4982638;28;20046;-74
2023/06/19 09:04:40;;;;;;;5.40;4.90;;;22.10;99.90;;;;;;5016009;28;20052;-73
2023/06/19 09:07:07;;;;;;;5.45;4.75;;;22.10;99.90;;;;;;5016150;28;20471;-74
2023/06/19 09:09:33;;;;;;;6.57;5.22;;;22.30;99.90;;;;;;4999269;28;20049;-72
2023/06/19 09:12:11;;;;;;;4.80;4.40;;;22.20;99.90;;;;;;5016636;28;20473;-75
2023/06/19 09:14:40;;;;;;;6.20;4.45;;;22.20;99.90;;;;;;5016032;28;20077;-73
2023/06/19 09:17:08;;;;;;;5.63;4.15;;;22.20;99.90;;;;;;5015944;28;20103;-73
2023/06/19 09:19:37;;;;;;;4.80;4.30;;;22.30;99.90;;;;;;5015861;28;20054;-74
2023/06/19 09:22:04;;;;;;;5.82;4.60;;;22.30;99.90;;;;;;4999165;28;20081;-73
2023/06/19 09:24:40;;;;;;;7.60;4.32;;;22.50;99.90;;;;;;5016393;28;20069;-73
2023/06/19 09:27:13;;;;;;;6.00;4.40;;;22.70;99.90;;;;;;5015957;28;20068;-72
2023/06/19 09:29:42;;;;;;;;;;;22.90;99.90;;;;;;5016524;28;20050;-73
2023/06/19 09:32:22;;;;;;;6.10;5.18;;;23.60;99.90;;;;;;4998957;28;19922;-73
2023/06/19 09:34:51;;;;;;;7.30;5.30;;;24.20;99.90;;;;;;5015837;28;20072;-72
2023/06/19 09:37:23;;;;;;;7.38;5.38;;;24.20;99.90;;;;;;5015426;28;20406;-72
2023/06/19 09:39:53;;;;;;;;;;;24.10;99.60;;;;;;5016214;28;20054;-72
2023/06/19 09:42:31;;;;;;;7.80;5.28;;;23.60;99.00;;;;;;5015166;28;20413;-74
2023/06/19 09:45:10;;;;;;;6.40;4.75;;;23.40;99.90;;;;;;5015865;28;20056;-72
2023/06/19 09:47:38;;;;;;;5.97;5.38;;;23.30;99.90;;;;;;5015831;28;20041;-72
2023/06/19 09:50:05;;;;;;;6.13;5.10;;;23.20;99.90;;;;;;5015420;28;20543;-72
2023/06/19 09:52:32;;;;;;;5.80;4.65;;;23.00;99.40;;;;;;4998453;28;20052;-72
2023/06/19 09:55:02;;;;;;;6.22;5.63;;;23.10;99.20;;;;;;5015942;28;20046;-74
2023/06/19 09:57:29;;;;;;;9.50;5.10;;;23.10;99.00;;;;;;5016066;28;20050;-73
2023/06/19 09:59:56;;;;;;;6.63;4.65;;;23.40;99.40;;;;;;5015564;28;20041;-73
2023/06/19 10:02:23;;;;;;;8.38;6.07;;;23.60;99.30;;;;;;5015113;28;20092;-74
2023/06/19 10:04:57;;;;;;;6.95;6.25;;;23.60;98.90;;;;;;5014674;28;20088;-74
2023/06/19 10:07:27;;;;;;;7.55;5.80;;;23.50;97.90;;;;;;5014986;28;20042;-73
2023/06/19 10:10:06;;;;;;;8.63;6.20;;;23.30;98.00;;;;;;5015507;28;20125;-73
2023/06/19 10:12:43;;;;;;;6.35;5.30;;;23.30;98.00;;;;;;4997236;28;20049;-73
2023/06/19 10:15:14;;;;;;;6.25;5.35;;;23.40;98.50;;;;;;4997556;28;20475;-73
2023/06/19 10:17:47;;;;;;;8.15;7.25;;;23.40;98.10;;;;;;5014864;28;20053;-73
2023/06/19 10:20:23;;;;;;;5.97;4.93;;;23.40;97.70;;;;;;5014420;28;20042;-73
2023/06/19 10:23:17;;;;;;;6.68;5.43;;;23.70;97.90;;;;;;4997337;28;20385;-75
2023/06/19 10:25:44;;;;;;;7.63;5.32;;;24.00;97.00;;;;;;5007240;28;20468;-73
2023/06/19 10:28:24;;;;;;;4.88;4.45;;;24.30;97.60;;;;;;5014430;28;20056;-73
2023/06/19 10:31:03;;;;;;;6.15;5.55;;;24.40;96.80;;;;;;5014947;28;20053;-73
2023/06/19 10:33:34;;;;;;;6.72;5.95;;;24.40;97.30;;;;;;4997449;28;20046;-73
2023/06/19 10:36:02;;;;;;;9.10;6.38;;;24.30;97.30;;;;;;4997870;28;20565;-73
2023/06/19 10:38:28;;;;;;;9.98;6.15;;;24.20;97.10;;;;;;5014548;28;20131;-73
2023/06/19 10:40:54;;;;;;;7.57;5.75;;;24.20;97.20;;;;;;4996913;28;20069;-73
2023/06/19 10:43:22;;;;;;;9.02;6.70;;;24.10;97.10;;;;;;5014883;28;20050;-74
2023/06/19 10:45:48;;;;;;;8.40;7.00;;;24.20;97.00;;;;;;5014310;28;20049;-74
2023/06/19 10:48:27;;;;;;;7.05;6.35;;;24.40;97.20;;;;;;5014224;28;20399;-75
2023/06/19 10:50:56;;;;;;;9.98;7.65;;;24.50;96.60;;;;;;5014386;28;20539;-74
2023/06/19 10:53:31;;;;;;;11.20;8.00;;;24.40;97.00;;;;;;4997182;28;20081;-72
2023/06/19 10:55:58;;;;;;;9.98;7.15;;;24.30;96.40;;;;;;5014586;28;20073;-73
2023/06/19 10:58:27;;;;;;;8.98;7.32;;;24.20;97.30;;;;;;4996523;28;20042;-73
2023/06/19 11:00:53;;;;;;;9.88;7.05;;;24.20;97.20;;;;;;4996672;28;20050;-72
2023/06/19 11:03:19;;;;;;;7.97;7.15;;;24.30;97.30;;;;;;5014364;28;20055;-74
2023/06/19 11:05:46;;;;;;;8.70;7.30;;;24.30;96.90;;;;;;5014409;28;20050;-73
2023/06/19 11:08:21;;;;;;;9.77;8.10;;;24.20;96.70;;;;;;4996323;28;20060;-73
2023/06/19 11:10:47;;;;;;;9.57;6.88;;;24.20;96.30;;;;;;5014449;28;20108;-74
2023/06/19 11:13:18;;;;;;;7.60;6.88;;;24.30;96.90;;;;;;5014316;28;20048;-70
2023/06/19 11:15:44;;;;;;;8.95;7.47;;;24.30;96.90;;;;;;4996399;28;20117;-71
2023/06/19 11:18:10;;;;;;;8.18;6.93;;;24.40;96.80;;;;;;5012938;28;20041;-71
2023/06/19 11:20:45;;;;;;;10.35;6.95;;;24.40;96.80;;;;;;5013292;28;20046;-71
2023/06/19 11:23:11;;;;;;;9.52;7.07;;;24.70;96.40;;;;;;4996187;28;20466;-71
2023/06/19 11:25:38;;;;;;;8.23;7.43;;;24.70;96.50;;;;;;5013890;28;20050;-70
2023/06/19 11:28:10;;;;;;;8.18;6.78;;;24.80;96.50;;;;;;5013946;28;20053;-71
2023/06/19 11:30:35;;;;;;;8.65;7.40;;;24.90;96.50;;;;;;5013579;28;20037;-71
2023/06/19 11:33:01;;;;;;;7.43;6.47;;;25.20;96.50;;;;;;5013298;28;20110;-71
2023/06/19 11:35:36;;;;;;;9.15;6.90;;;25.50;96.20;;;;;;5013443;28;20133;-71
2023/06/19 11:38:03;;;;;;;9.35;7.13;;;25.50;95.20;;;;;;5013177;28;20057;-71
2023/06/19 11:40:38;;;;;;;8.30;6.45;;;25.30;95.80;;;;;;5013657;28;20374;-71
2023/06/19 11:43:03;;;;;;;10.13;7.75;;;25.40;96.00;;;;;;4995674;28;20049;-71
2023/06/19 11:45:29;;;;;;;9.50;7.22;;;25.20;95.90;;;;;;4996517;28;20042;-73
2023/06/19 11:47:55;;;;;;;7.63;6.93;;;25.30;95.80;;;;;;5013557;28;20101;-72
2023/06/19 11:50:27;;;;;;;7.72;6.30;;;25.50;95.50;;;;;;5013403;28;20053;-72
2023/06/19 11:52:53;;;;;;;;;;;25.60;94.90;;;;;;5013443;28;20042;-72
2023/06/19 11:55:18;;;;;;;7.20;6.28;;;25.40;94.90;;;;;;4995747;28;20016;-73
2023/06/19 11:57:44;;;;;;;9.77;7.15;;;25.60;95.10;;;;;;5012990;28;20049;-73
2023/06/19 12:00:15;;;;;;;6.95;6.22;;;25.70;94.50;;;;;;5013010;28;20471;-71
2023/06/19 12:02:40;;;;;;;10.55;7.30;;;26.00;94.50;;;;;;5013033;28;20058;-72
2023/06/19 12:05:06;;;;;;;9.05;8.07;;;25.90;94.20;;;;;;5012930;28;20513;-72
2023/06/19 12:07:33;;;;;;;11.48;7.35;;;26.00;94.00;;;;;;5012609;28;20096;-72
2023/06/19 12:09:58;;;;;;;9.50;7.63;;;25.90;94.10;;;;;;5012336;28;20050;-73
2023/06/19 12:12:25;;;;;;;9.88;8.00;;;25.80;93.90;;;;;;4979651;28;20042;-73
2023/06/19 12:14:51;;;;;;;8.75;6.63;;;25.90;94.00;;;;;;5012690;28;20056;-73
2023/06/19 12:17:17;;;;;;;10.25;7.60;;;26.00;94.00;;;;;;5012675;28;20042;-72
2023/06/19 12:19:43;;;;;;;9.77;7.47;;;26.00;93.90;;;;;;5012969;28;20132;-72
2023/06/19 12:22:08;;;;;;;7.40;6.70;;;26.00;94.00;;;;;;5012642;28;20466;-73
2023/06/19 12:24:34;;;;;;;9.75;8.10;;;26.10;94.50;;;;;;5013249;28;20114;-74
2023/06/19 12:27:00;;;;;;;10.90;8.75;;;26.10;93.40;;;;;;5012549;28;20042;-73
2023/06/19 12:29:26;;;;;;;8.57;7.75;;;26.00;93.80;;;;;;5016795;28;20057;-74
2023/06/19 12:31:51;;;;;;;10.35;8.00;;;26.00;93.60;;;;;;5019095;28;20092;-73
2023/06/19 12:34:17;;;;;;;13.02;8.93;;;26.00;93.70;;;;;;5019073;28;20081;-73
2023/06/19 12:36:43;;;;;;;11.32;9.25;;;26.00;93.70;;;;;;5018913;28;20115;-74
2023/06/19 12:39:16;;;;;;;14.15;8.75;;;25.90;93.60;;;;;;5001714;28;20054;-73
2023/06/19 12:41:41;;;;;;;12.93;9.75;;;25.80;93.80;;;;;;5019022;28;20058;-75
2023/06/19 12:44:07;;;;;;;14.13;8.48;;;25.70;93.80;;;;;;5019541;28;20052;-73
2023/06/19 12:46:33;;;;;;;8.57;7.13;;;25.90;93.70;;;;;;5019274;28;20466;-74